ZSPD/PVG METAR and TAF weather

Enter ICAO airport designator
Station Type Date Time Source
ZSPD METAR 2020/10/22 04:00 UTC NOAA

ZSPD 220400Z 33006MPS 7000 NSC 21/12 Q1016 NOSIG


Station Type Date Time Source
ZSPD Decoded METAR 2020/10/22 04:00 UTC NOAA

Shanghai / Pudong, China (ZSPD) 31-07N 121-46E
Oct 22, 2020 - 12:00 AM EDT / 2020.10.22 0400 UTC
Wind: from the NNW (330 degrees) at 13 MPH (12 KT):0
Visibility: 4 mile(s):0
Temperature: 69 F (21 C)
Dew Point: 53 F (12 C)
Relative Humidity: 56%
Pressure (altimeter): 30.00 in. Hg (1016 hPa)
ob: ZSPD 220400Z 33006MPS 7000 NSC 21/12 Q1016 NOSIG
cycle: 4

Station Type Date Time Source
ZSPD TAF 2020/10/22 06:03 UTC NOAA

TAF ZSPD 220305Z 2206/2306 35007G13MPS 6000 BKN020 TX21/2206Z TN14/2221Z

Example: see airport list